sensor_id;sensor_type;location;lat;lon;timestamp;P1;durP1;ratioP1;P2;durP2;ratioP2
34711;SDS011;20941;42.408;25.634;2023-12-28T00:01:42;7.60;;;4.13;;
34711;SDS011;20941;42.408;25.634;2023-12-28T00:04:08;10.20;;;4.15;;
34711;SDS011;20941;42.408;25.634;2023-12-28T00:06:33;8.75;;;4.20;;
34711;SDS011;20941;42.408;25.634;2023-12-28T00:08:58;11.35;;;4.53;;
34711;SDS011;20941;42.408;25.634;2023-12-28T00:11:25;10.15;;;4.20;;
34711;SDS011;20941;42.408;25.634;2023-12-28T00:13:51;9.10;;;4.20;;
34711;SDS011;20941;42.408;25.634;2023-12-28T00:16:16;7.63;;;4.68;;
34711;SDS011;20941;42.408;25.634;2023-12-28T00:18:41;10.25;;;4.70;;
34711;SDS011;20941;42.408;25.634;2023-12-28T00:21:07;9.45;;;4.82;;
34711;SDS011;20941;42.408;25.634;2023-12-28T00:23:32;10.93;;;5.78;;
34711;SDS011;20941;42.408;25.634;2023-12-28T00:25:58;12.52;;;5.43;;
34711;SDS011;20941;42.408;25.634;2023-12-28T00:28:23;9.10;;;5.30;;
34711;SDS011;20941;42.408;25.634;2023-12-28T00:30:49;15.57;;;6.40;;
34711;SDS011;20941;42.408;25.634;2023-12-28T00:33:14;12.35;;;5.50;;
34711;SDS011;20941;42.408;25.634;2023-12-28T00:35:39;13.32;;;5.25;;
34711;SDS011;20941;42.408;25.634;2023-12-28T00:38:05;11.18;;;5.78;;
34711;SDS011;20941;42.408;25.634;2023-12-28T00:40:30;8.52;;;5.60;;
34711;SDS011;20941;42.408;25.634;2023-12-28T00:42:56;9.55;;;4.93;;
34711;SDS011;20941;42.408;25.634;2023-12-28T00:45:21;12.38;;;5.68;;
34711;SDS011;20941;42.408;25.634;2023-12-28T00:47:46;12.50;;;5.35;;
34711;SDS011;20941;42.408;25.634;2023-12-28T00:50:12;8.13;;;4.32;;
34711;SDS011;20941;42.408;25.634;2023-12-28T00:52:39;7.85;;;4.80;;
34711;SDS011;20941;42.408;25.634;2023-12-28T00:55:05;8.63;;;4.13;;
34711;SDS011;20941;42.408;25.634;2023-12-28T00:57:30;8.02;;;4.10;;
34711;SDS011;20941;42.408;25.634;2023-12-28T00:59:56;8.77;;;4.07;;
34711;SDS011;20941;42.408;25.634;2023-12-28T01:02:21;7.22;;;4.25;;
34711;SDS011;20941;42.408;25.634;2023-12-28T01:04:47;7.25;;;4.07;;
34711;SDS011;20941;42.408;25.634;2023-12-28T01:07:12;7.85;;;3.75;;
34711;SDS011;20941;42.408;25.634;2023-12-28T01:09:38;8.35;;;4.07;;
34711;SDS011;20941;42.408;25.634;2023-12-28T01:12:03;10.63;;;3.80;;
34711;SDS011;20941;42.408;25.634;2023-12-28T01:14:30;7.90;;;3.80;;
34711;SDS011;20941;42.408;25.634;2023-12-28T01:16:55;7.47;;;3.50;;
34711;SDS011;20941;42.408;25.634;2023-12-28T01:19:20;8.80;;;4.43;;
34711;SDS011;20941;42.408;25.634;2023-12-28T01:21:48;7.85;;;3.90;;
34711;SDS011;20941;42.408;25.634;2023-12-28T01:24:13;8.07;;;3.75;;
34711;SDS011;20941;42.408;25.634;2023-12-28T01:26:39;8.80;;;4.00;;
34711;SDS011;20941;42.408;25.634;2023-12-28T01:29:05;7.88;;;4.18;;
34711;SDS011;20941;42.408;25.634;2023-12-28T01:31:30;6.70;;;3.50;;
34711;SDS011;20941;42.408;25.634;2023-12-28T01:33:55;5.82;;;3.65;;
34711;SDS011;20941;42.408;25.634;2023-12-28T01:36:21;7.38;;;3.50;;
34711;SDS011;20941;42.408;25.634;2023-12-28T01:38:47;7.93;;;4.00;;
34711;SDS011;20941;42.408;25.634;2023-12-28T01:41:12;6.95;;;3.60;;
34711;SDS011;20941;42.408;25.634;2023-12-28T01:43:40;5.28;;;3.70;;
34711;SDS011;20941;42.408;25.634;2023-12-28T01:46:06;4.75;;;3.70;;
34711;SDS011;20941;42.408;25.634;2023-12-28T01:48:31;7.38;;;3.80;;
34711;SDS011;20941;42.408;25.634;2023-12-28T01:50:57;8.90;;;3.83;;
34711;SDS011;20941;42.408;25.634;2023-12-28T01:53:23;7.93;;;4.15;;
34711;SDS011;20941;42.408;25.634;2023-12-28T01:55:49;5.75;;;3.38;;
34711;SDS011;20941;42.408;25.634;2023-12-28T01:58:14;8.20;;;3.70;;
34711;SDS011;20941;42.408;25.634;2023-12-28T02:00:39;12.55;;;3.78;;
34711;SDS011;20941;42.408;25.634;2023-12-28T02:03:07;6.43;;;3.50;;
34711;SDS011;20941;42.408;25.634;2023-12-28T02:05:33;9.10;;;4.13;;
34711;SDS011;20941;42.408;25.634;2023-12-28T02:07:59;5.60;;;3.80;;
34711;SDS011;20941;42.408;25.634;2023-12-28T02:10:24;4.82;;;3.63;;
34711;SDS011;20941;42.408;25.634;2023-12-28T02:12:50;9.90;;;4.00;;
34711;SDS011;20941;42.408;25.634;2023-12-28T02:15:17;7.50;;;3.63;;
34711;SDS011;20941;42.408;25.634;2023-12-28T02:17:44;9.38;;;4.00;;
34711;SDS011;20941;42.408;25.634;2023-12-28T02:20:12;6.93;;;3.85;;
34711;SDS011;20941;42.408;25.634;2023-12-28T02:22:38;6.93;;;3.92;;
34711;SDS011;20941;42.408;25.634;2023-12-28T02:27:31;10.32;;;4.88;;
34711;SDS011;20941;42.408;25.634;2023-12-28T02:29:57;8.15;;;4.85;;
34711;SDS011;20941;42.408;25.634;2023-12-28T02:32:24;13.32;;;5.10;;
34711;SDS011;20941;42.408;25.634;2023-12-28T02:34:53;15.73;;;5.70;;
34711;SDS011;20941;42.408;25.634;2023-12-28T02:37:21;14.10;;;6.13;;
34711;SDS011;20941;42.408;25.634;2023-12-28T02:39:46;11.52;;;5.90;;
34711;SDS011;20941;42.408;25.634;2023-12-28T02:42:13;12.35;;;6.20;;
34711;SDS011;20941;42.408;25.634;2023-12-28T02:44:38;10.25;;;6.13;;
34711;SDS011;20941;42.408;25.634;2023-12-28T02:47:04;14.10;;;6.35;;
34711;SDS011;20941;42.408;25.634;2023-12-28T02:49:29;9.32;;;5.28;;
34711;SDS011;20941;42.408;25.634;2023-12-28T02:51:55;12.02;;;6.10;;
34711;SDS011;20941;42.408;25.634;2023-12-28T02:54:20;10.80;;;6.40;;
34711;SDS011;20941;42.408;25.634;2023-12-28T02:56:45;12.95;;;6.70;;
34711;SDS011;20941;42.408;25.634;2023-12-28T02:59:11;10.50;;;6.38;;
34711;SDS011;20941;42.408;25.634;2023-12-28T03:01:36;12.65;;;6.88;;
34711;SDS011;20941;42.408;25.634;2023-12-28T03:04:02;14.20;;;7.40;;
34711;SDS011;20941;42.408;25.634;2023-12-28T03:06:27;13.45;;;7.70;;
34711;SDS011;20941;42.408;25.634;2023-12-28T03:08:52;13.77;;;6.82;;
34711;SDS011;20941;42.408;25.634;2023-12-28T03:11:18;14.70;;;7.63;;
34711;SDS011;20941;42.408;25.634;2023-12-28T03:13:45;17.20;;;8.57;;
34711;SDS011;20941;42.408;25.634;2023-12-28T03:16:12;21.08;;;8.98;;
34711;SDS011;20941;42.408;25.634;2023-12-28T03:18:38;17.85;;;9.55;;
34711;SDS011;20941;42.408;25.634;2023-12-28T03:21:03;24.65;;;10.82;;
34711;SDS011;20941;42.408;25.634;2023-12-28T03:23:29;32.10;;;13.57;;
34711;SDS011;20941;42.408;25.634;2023-12-28T03:25:54;36.75;;;16.05;;
34711;SDS011;20941;42.408;25.634;2023-12-28T03:28:19;29.58;;;13.63;;
34711;SDS011;20941;42.408;25.634;2023-12-28T03:30:45;31.17;;;14.98;;
34711;SDS011;20941;42.408;25.634;2023-12-28T03:33:10;32.85;;;15.07;;
34711;SDS011;20941;42.408;25.634;2023-12-28T03:35:36;26.95;;;14.25;;
34711;SDS011;20941;42.408;25.634;2023-12-28T03:38:01;32.05;;;14.18;;
34711;SDS011;20941;42.408;25.634;2023-12-28T03:40:27;28.17;;;12.82;;
34711;SDS011;20941;42.408;25.634;2023-12-28T03:42:52;23.75;;;11.43;;
34711;SDS011;20941;42.408;25.634;2023-12-28T03:45:17;22.17;;;10.50;;
34711;SDS011;20941;42.408;25.634;2023-12-28T03:47:43;19.77;;;9.77;;
34711;SDS011;20941;42.408;25.634;2023-12-28T03:50:08;17.08;;;9.20;;
34711;SDS011;20941;42.408;25.634;2023-12-28T03:52:34;21.48;;;8.82;;
34711;SDS011;20941;42.408;25.634;2023-12-28T03:54:59;20.02;;;9.52;;
34711;SDS011;20941;42.408;25.634;2023-12-28T03:57:25;25.90;;;13.02;;
34711;SDS011;20941;42.408;25.634;2023-12-28T03:59:50;26.45;;;13.20;;
34711;SDS011;20941;42.408;25.634;2023-12-28T04:02:15;25.73;;;12.98;;
34711;SDS011;20941;42.408;25.634;2023-12-28T04:04:41;28.10;;;14.73;;
34711;SDS011;20941;42.408;25.634;2023-12-28T04:07:06;26.60;;;13.48;;
34711;SDS011;20941;42.408;25.634;2023-12-28T04:09:33;31.23;;;15.25;;
34711;SDS011;20941;42.408;25.634;2023-12-28T04:11:58;30.27;;;16.23;;
34711;SDS011;20941;42.408;25.634;2023-12-28T04:14:24;30.85;;;15.80;;
34711;SDS011;20941;42.408;25.634;2023-12-28T04:16:49;35.63;;;14.80;;
34711;SDS011;20941;42.408;25.634;2023-12-28T04:19:14;31.92;;;16.25;;
34711;SDS011;20941;42.408;25.634;2023-12-28T04:21:42;33.05;;;15.55;;
34711;SDS011;20941;42.408;25.634;2023-12-28T04:24:08;29.38;;;15.57;;
34711;SDS011;20941;42.408;25.634;2023-12-28T04:26:33;34.15;;;15.90;;
34711;SDS011;20941;42.408;25.634;2023-12-28T04:28:59;32.05;;;15.48;;
34711;SDS011;20941;42.408;25.634;2023-12-28T04:31:24;24.70;;;13.98;;
34711;SDS011;20941;42.408;25.634;2023-12-28T04:33:49;26.25;;;14.40;;
34711;SDS011;20941;42.408;25.634;2023-12-28T04:36:15;30.67;;;14.75;;
34711;SDS011;20941;42.408;25.634;2023-12-28T04:38:40;26.40;;;13.00;;
34711;SDS011;20941;42.408;25.634;2023-12-28T04:41:06;28.02;;;15.43;;
34711;SDS011;20941;42.408;25.634;2023-12-28T04:43:31;25.23;;;13.90;;
34711;SDS011;20941;42.408;25.634;2023-12-28T04:45:57;33.03;;;14.27;;
34711;SDS011;20941;42.408;25.634;2023-12-28T04:48:22;28.00;;;14.20;;
34711;SDS011;20941;42.408;25.634;2023-12-28T04:50:50;26.95;;;15.50;;
34711;SDS011;20941;42.408;25.634;2023-12-28T04:53:16;32.85;;;15.75;;
34711;SDS011;20941;42.408;25.634;2023-12-28T04:55:41;35.03;;;16.85;;
34711;SDS011;20941;42.408;25.634;2023-12-28T04:58:07;36.88;;;17.30;;
34711;SDS011;20941;42.408;25.634;2023-12-28T05:00:32;31.45;;;16.08;;
34711;SDS011;20941;42.408;25.634;2023-12-28T05:02:58;28.58;;;15.15;;
34711;SDS011;20941;42.408;25.634;2023-12-28T05:05:23;30.33;;;14.93;;
34711;SDS011;20941;42.408;25.634;2023-12-28T05:07:48;36.83;;;17.55;;
34711;SDS011;20941;42.408;25.634;2023-12-28T05:10:14;68.45;;;33.80;;
34711;SDS011;20941;42.408;25.634;2023-12-28T05:12:39;281.77;;;118.45;;
34711;SDS011;20941;42.408;25.634;2023-12-28T05:15:05;137.95;;;63.55;;
34711;SDS011;20941;42.408;25.634;2023-12-28T05:17:30;144.25;;;66.15;;
34711;SDS011;20941;42.408;25.634;2023-12-28T05:19:56;78.80;;;40.83;;
34711;SDS011;20941;42.408;25.634;2023-12-28T05:22:21;43.35;;;21.58;;
34711;SDS011;20941;42.408;25.634;2023-12-28T05:24:47;41.15;;;19.73;;
34711;SDS011;20941;42.408;25.634;2023-12-28T05:27:12;35.80;;;16.33;;
34711;SDS011;20941;42.408;25.634;2023-12-28T05:29:37;39.83;;;18.10;;
34711;SDS011;20941;42.408;25.634;2023-12-28T05:32:03;37.25;;;19.60;;
34711;SDS011;20941;42.408;25.634;2023-12-28T05:34:29;44.25;;;22.88;;
34711;SDS011;20941;42.408;25.634;2023-12-28T05:36:54;39.65;;;20.58;;
34711;SDS011;20941;42.408;25.634;2023-12-28T05:39:19;51.25;;;22.15;;
34711;SDS011;20941;42.408;25.634;2023-12-28T05:41:45;52.35;;;22.92;;
34711;SDS011;20941;42.408;25.634;2023-12-28T05:44:12;50.72;;;21.77;;
34711;SDS011;20941;42.408;25.634;2023-12-28T05:46:38;51.85;;;23.90;;
34711;SDS011;20941;42.408;25.634;2023-12-28T05:49:03;54.00;;;22.63;;
34711;SDS011;20941;42.408;25.634;2023-12-28T05:51:29;44.92;;;22.05;;
34711;SDS011;20941;42.408;25.634;2023-12-28T05:53:54;54.33;;;23.75;;
34711;SDS011;20941;42.408;25.634;2023-12-28T05:56:19;51.75;;;24.08;;
34711;SDS011;20941;42.408;25.634;2023-12-28T05:58:45;56.65;;;25.50;;
34711;SDS011;20941;42.408;25.634;2023-12-28T06:01:10;58.72;;;25.75;;
34711;SDS011;20941;42.408;25.634;2023-12-28T06:03:36;66.03;;;26.77;;
34711;SDS011;20941;42.408;25.634;2023-12-28T06:06:01;67.07;;;26.98;;
34711;SDS011;20941;42.408;25.634;2023-12-28T06:08:26;64.00;;;26.90;;
34711;SDS011;20941;42.408;25.634;2023-12-28T06:10:52;62.33;;;26.25;;
34711;SDS011;20941;42.408;25.634;2023-12-28T06:13:17;65.80;;;29.05;;
34711;SDS011;20941;42.408;25.634;2023-12-28T06:15:42;59.53;;;27.02;;
34711;SDS011;20941;42.408;25.634;2023-12-28T06:18:08;65.55;;;26.85;;
34711;SDS011;20941;42.408;25.634;2023-12-28T06:20:35;63.22;;;26.85;;
34711;SDS011;20941;42.408;25.634;2023-12-28T06:23:01;53.95;;;25.70;;
34711;SDS011;20941;42.408;25.634;2023-12-28T06:25:27;75.05;;;32.95;;
34711;SDS011;20941;42.408;25.634;2023-12-28T06:27:53;70.15;;;35.72;;
34711;SDS011;20941;42.408;25.634;2023-12-28T06:30:18;79.28;;;36.70;;
34711;SDS011;20941;42.408;25.634;2023-12-28T06:32:44;78.68;;;36.08;;
34711;SDS011;20941;42.408;25.634;2023-12-28T06:35:10;86.80;;;35.38;;
34711;SDS011;20941;42.408;25.634;2023-12-28T06:37:35;88.65;;;41.55;;
34711;SDS011;20941;42.408;25.634;2023-12-28T06:40:00;75.80;;;36.85;;
34711;SDS011;20941;42.408;25.634;2023-12-28T06:42:26;76.72;;;36.90;;
34711;SDS011;20941;42.408;25.634;2023-12-28T06:44:51;75.47;;;35.15;;
34711;SDS011;20941;42.408;25.634;2023-12-28T06:47:17;80.10;;;38.25;;
34711;SDS011;20941;42.408;25.634;2023-12-28T06:49:42;85.60;;;39.03;;
34711;SDS011;20941;42.408;25.634;2023-12-28T06:52:08;134.27;;;64.70;;
34711;SDS011;20941;42.408;25.634;2023-12-28T06:54:33;82.80;;;37.58;;
34711;SDS011;20941;42.408;25.634;2023-12-28T06:56:59;67.78;;;33.90;;
34711;SDS011;20941;42.408;25.634;2023-12-28T06:59:24;62.58;;;29.67;;
34711;SDS011;20941;42.408;25.634;2023-12-28T07:01:50;39.78;;;20.75;;
34711;SDS011;20941;42.408;25.634;2023-12-28T07:04:15;46.53;;;23.08;;
34711;SDS011;20941;42.408;25.634;2023-12-28T07:06:43;45.65;;;22.95;;
34711;SDS011;20941;42.408;25.634;2023-12-28T07:09:09;55.92;;;21.15;;
34711;SDS011;20941;42.408;25.634;2023-12-28T07:11:34;45.30;;;21.02;;
34711;SDS011;20941;42.408;25.634;2023-12-28T07:13:59;49.95;;;23.08;;
34711;SDS011;20941;42.408;25.634;2023-12-28T07:16:25;48.63;;;23.95;;
34711;SDS011;20941;42.408;25.634;2023-12-28T07:18:51;50.15;;;25.63;;
34711;SDS011;20941;42.408;25.634;2023-12-28T07:21:17;46.17;;;23.48;;
34711;SDS011;20941;42.408;25.634;2023-12-28T07:23:42;44.97;;;22.27;;
34711;SDS011;20941;42.408;25.634;2023-12-28T07:26:13;38.17;;;20.00;;
34711;SDS011;20941;42.408;25.634;2023-12-28T07:28:39;52.00;;;23.55;;
34711;SDS011;20941;42.408;25.634;2023-12-28T07:31:07;33.60;;;17.33;;
34711;SDS011;20941;42.408;25.634;2023-12-28T07:33:33;30.98;;;15.85;;
34711;SDS011;20941;42.408;25.634;2023-12-28T07:35:58;28.00;;;13.95;;
34711;SDS011;20941;42.408;25.634;2023-12-28T07:38:27;26.00;;;13.60;;
34711;SDS011;20941;42.408;25.634;2023-12-28T07:40:52;24.95;;;12.30;;
34711;SDS011;20941;42.408;25.634;2023-12-28T07:43:18;21.00;;;10.95;;
34711;SDS011;20941;42.408;25.634;2023-12-28T07:45:43;22.02;;;10.32;;
34711;SDS011;20941;42.408;25.634;2023-12-28T07:48:09;14.82;;;9.10;;
34711;SDS011;20941;42.408;25.634;2023-12-28T07:50:34;21.65;;;9.98;;
34711;SDS011;20941;42.408;25.634;2023-12-28T07:53:00;17.25;;;9.30;;
34711;SDS011;20941;42.408;25.634;2023-12-28T07:55:25;16.50;;;8.73;;
34711;SDS011;20941;42.408;25.634;2023-12-28T07:57:51;21.75;;;9.27;;
34711;SDS011;20941;42.408;25.634;2023-12-28T08:00:17;21.88;;;9.70;;
34711;SDS011;20941;42.408;25.634;2023-12-28T08:03:01;24.15;;;11.80;;
34711;SDS011;20941;42.408;25.634;2023-12-28T08:05:45;32.20;;;12.75;;
34711;SDS011;20941;42.408;25.634;2023-12-28T08:08:10;28.88;;;12.18;;
34711;SDS011;20941;42.408;25.634;2023-12-28T08:10:36;31.27;;;11.63;;
34711;SDS011;20941;42.408;25.634;2023-12-28T08:13:01;20.35;;;9.82;;
34711;SDS011;20941;42.408;25.634;2023-12-28T08:15:26;18.40;;;9.02;;
34711;SDS011;20941;42.408;25.634;2023-12-28T08:17:52;18.20;;;9.15;;
34711;SDS011;20941;42.408;25.634;2023-12-28T08:20:17;17.40;;;8.88;;
34711;SDS011;20941;42.408;25.634;2023-12-28T08:22:43;20.00;;;7.80;;
34711;SDS011;20941;42.408;25.634;2023-12-28T08:25:08;14.43;;;7.00;;
34711;SDS011;20941;42.408;25.634;2023-12-28T08:27:34;13.75;;;6.70;;
34711;SDS011;20941;42.408;25.634;2023-12-28T08:30:00;25.38;;;8.20;;
34711;SDS011;20941;42.408;25.634;2023-12-28T08:32:25;16.65;;;7.25;;
34711;SDS011;20941;42.408;25.634;2023-12-28T08:34:51;14.00;;;6.68;;
34711;SDS011;20941;42.408;25.634;2023-12-28T08:37:16;16.55;;;6.47;;
34711;SDS011;20941;42.408;25.634;2023-12-28T08:39:42;13.23;;;6.75;;
34711;SDS011;20941;42.408;25.634;2023-12-28T08:42:07;19.65;;;7.15;;
34711;SDS011;20941;42.408;25.634;2023-12-28T08:44:32;20.17;;;7.43;;
34711;SDS011;20941;42.408;25.634;2023-12-28T08:46:58;12.95;;;6.38;;
34711;SDS011;20941;42.408;25.634;2023-12-28T08:49:24;12.73;;;5.70;;
34711;SDS011;20941;42.408;25.634;2023-12-28T08:51:50;13.65;;;6.43;;
34711;SDS011;20941;42.408;25.634;2023-12-28T08:54:16;13.63;;;5.88;;
34711;SDS011;20941;42.408;25.634;2023-12-28T08:56:41;14.32;;;6.38;;
34711;SDS011;20941;42.408;25.634;2023-12-28T08:59:08;18.70;;;6.78;;
34711;SDS011;20941;42.408;25.634;2023-12-28T09:01:33;18.42;;;6.43;;
34711;SDS011;20941;42.408;25.634;2023-12-28T09:03:58;13.02;;;4.80;;
34711;SDS011;20941;42.408;25.634;2023-12-28T09:06:25;13.48;;;5.45;;
34711;SDS011;20941;42.408;25.634;2023-12-28T09:08:51;15.82;;;5.72;;
34711;SDS011;20941;42.408;25.634;2023-12-28T09:11:17;15.57;;;5.93;;
34711;SDS011;20941;42.408;25.634;2023-12-28T09:13:42;11.90;;;5.93;;
34711;SDS011;20941;42.408;25.634;2023-12-28T09:16:09;11.07;;;5.45;;
34711;SDS011;20941;42.408;25.634;2023-12-28T09:18:35;18.65;;;5.18;;
34711;SDS011;20941;42.408;25.634;2023-12-28T09:21:04;15.55;;;5.43;;
34711;SDS011;20941;42.408;25.634;2023-12-28T09:23:30;15.15;;;4.82;;
34711;SDS011;20941;42.408;25.634;2023-12-28T09:25:56;12.18;;;4.45;;
34711;SDS011;20941;42.408;25.634;2023-12-28T09:28:23;18.00;;;5.38;;
34711;SDS011;20941;42.408;25.634;2023-12-28T09:30:48;18.35;;;6.72;;
34711;SDS011;20941;42.408;25.634;2023-12-28T09:33:13;16.33;;;7.57;;
34711;SDS011;20941;42.408;25.634;2023-12-28T09:35:40;18.42;;;7.93;;
34711;SDS011;20941;42.408;25.634;2023-12-28T09:38:06;19.33;;;7.82;;
34711;SDS011;20941;42.408;25.634;2023-12-28T09:40:31;12.23;;;6.20;;
34711;SDS011;20941;42.408;25.634;2023-12-28T09:43:01;10.90;;;5.63;;
34711;SDS011;20941;42.408;25.634;2023-12-28T09:45:29;14.60;;;5.55;;
34711;SDS011;20941;42.408;25.634;2023-12-28T09:47:54;13.70;;;6.05;;
34711;SDS011;20941;42.408;25.634;2023-12-28T09:50:20;16.00;;;6.38;;
34711;SDS011;20941;42.408;25.634;2023-12-28T09:52:46;18.92;;;7.32;;
34711;SDS011;20941;42.408;25.634;2023-12-28T09:55:11;17.90;;;6.60;;
34711;SDS011;20941;42.408;25.634;2023-12-28T09:57:37;18.95;;;7.53;;
34711;SDS011;20941;42.408;25.634;2023-12-28T10:00:03;9.45;;;5.28;;
34711;SDS011;20941;42.408;25.634;2023-12-28T10:02:31;10.20;;;5.78;;
34711;SDS011;20941;42.408;25.634;2023-12-28T10:04:57;22.23;;;6.53;;
34711;SDS011;20941;42.408;25.634;2023-12-28T10:07:23;22.60;;;6.28;;
34711;SDS011;20941;42.408;25.634;2023-12-28T10:09:49;22.55;;;6.78;;
34711;SDS011;20941;42.408;25.634;2023-12-28T10:12:14;12.57;;;6.07;;
34711;SDS011;20941;42.408;25.634;2023-12-28T10:14:40;7.88;;;5.50;;
34711;SDS011;20941;42.408;25.634;2023-12-28T10:17:05;10.73;;;5.68;;
34711;SDS011;20941;42.408;25.634;2023-12-28T10:19:31;9.80;;;4.90;;
34711;SDS011;20941;42.408;25.634;2023-12-28T10:21:57;11.32;;;5.05;;
34711;SDS011;20941;42.408;25.634;2023-12-28T10:24:22;15.30;;;5.13;;
34711;SDS011;20941;42.408;25.634;2023-12-28T10:26:48;13.30;;;5.05;;
34711;SDS011;20941;42.408;25.634;2023-12-28T10:29:13;11.43;;;5.07;;
34711;SDS011;20941;42.408;25.634;2023-12-28T10:31:41;10.75;;;4.50;;
34711;SDS011;20941;42.408;25.634;2023-12-28T10:34:06;7.90;;;4.00;;
34711;SDS011;20941;42.408;25.634;2023-12-28T10:36:32;8.73;;;3.20;;
34711;SDS011;20941;42.408;25.634;2023-12-28T10:39:01;18.52;;;4.22;;
34711;SDS011;20941;42.408;25.634;2023-12-28T10:41:27;9.60;;;3.58;;
34711;SDS011;20941;42.408;25.634;2023-12-28T10:44:02;11.90;;;5.05;;
34711;SDS011;20941;42.408;25.634;2023-12-28T10:46:30;13.98;;;5.10;;
34711;SDS011;20941;42.408;25.634;2023-12-28T10:49:00;8.70;;;4.10;;
34711;SDS011;20941;42.408;25.634;2023-12-28T10:51:30;13.10;;;4.43;;
34711;SDS011;20941;42.408;25.634;2023-12-28T10:53:59;11.10;;;4.28;;
34711;SDS011;20941;42.408;25.634;2023-12-28T10:59:05;18.58;;;4.50;;
34711;SDS011;20941;42.408;25.634;2023-12-28T11:01:34;17.17;;;4.53;;
34711;SDS011;20941;42.408;25.634;2023-12-28T11:04:46;14.90;;;4.57;;
34711;SDS011;20941;42.408;25.634;2023-12-28T11:06:46;7.97;;;3.55;;
34711;SDS011;20941;42.408;25.634;2023-12-28T11:09:13;13.52;;;3.90;;
34711;SDS011;20941;42.408;25.634;2023-12-28T11:11:40;8.45;;;4.85;;
34711;SDS011;20941;42.408;25.634;2023-12-28T11:14:06;7.65;;;3.40;;
34711;SDS011;20941;42.408;25.634;2023-12-28T11:16:32;6.00;;;4.03;;
34711;SDS011;20941;42.408;25.634;2023-12-28T11:18:58;8.15;;;3.92;;
34711;SDS011;20941;42.408;25.634;2023-12-28T11:21:24;9.77;;;4.50;;
34711;SDS011;20941;42.408;25.634;2023-12-28T11:23:50;14.27;;;5.20;;
34711;SDS011;20941;42.408;25.634;2023-12-28T11:26:16;16.10;;;5.38;;
34711;SDS011;20941;42.408;25.634;2023-12-28T11:28:42;19.20;;;5.70;;
34711;SDS011;20941;42.408;25.634;2023-12-28T11:31:13;12.10;;;4.38;;
34711;SDS011;20941;42.408;25.634;2023-12-28T11:33:50;8.52;;;4.03;;
34711;SDS011;20941;42.408;25.634;2023-12-28T11:36:22;11.75;;;4.32;;
34711;SDS011;20941;42.408;25.634;2023-12-28T11:38:48;14.93;;;4.47;;
34711;SDS011;20941;42.408;25.634;2023-12-28T11:41:16;12.20;;;4.10;;
34711;SDS011;20941;42.408;25.634;2023-12-28T11:43:41;15.05;;;5.05;;
34711;SDS011;20941;42.408;25.634;2023-12-28T11:46:08;14.10;;;4.40;;
34711;SDS011;20941;42.408;25.634;2023-12-28T11:48:33;11.15;;;4.13;;
34711;SDS011;20941;42.408;25.634;2023-12-28T11:50:59;7.55;;;3.75;;
34711;SDS011;20941;42.408;25.634;2023-12-28T11:53:24;8.52;;;3.88;;
34711;SDS011;20941;42.408;25.634;2023-12-28T11:55:50;17.13;;;4.15;;
34711;SDS011;20941;42.408;25.634;2023-12-28T11:58:19;13.90;;;4.50;;
34711;SDS011;20941;42.408;25.634;2023-12-28T12:00:44;21.88;;;4.65;;
34711;SDS011;20941;42.408;25.634;2023-12-28T12:03:13;9.48;;;4.70;;
34711;SDS011;20941;42.408;25.634;2023-12-28T12:05:39;8.23;;;4.20;;
34711;SDS011;20941;42.408;25.634;2023-12-28T12:08:08;17.85;;;4.65;;
34711;SDS011;20941;42.408;25.634;2023-12-28T12:10:36;16.25;;;4.72;;
34711;SDS011;20941;42.408;25.634;2023-12-28T12:13:01;20.23;;;4.60;;
34711;SDS011;20941;42.408;25.634;2023-12-28T12:15:28;11.55;;;4.32;;
34711;SDS011;20941;42.408;25.634;2023-12-28T12:17:54;7.43;;;3.90;;
34711;SDS011;20941;42.408;25.634;2023-12-28T12:20:19;13.35;;;4.40;;
34711;SDS011;20941;42.408;25.634;2023-12-28T12:22:45;7.90;;;4.00;;
34711;SDS011;20941;42.408;25.634;2023-12-28T12:25:10;10.23;;;4.78;;
34711;SDS011;20941;42.408;25.634;2023-12-28T12:27:36;9.02;;;4.05;;
34711;SDS011;20941;42.408;25.634;2023-12-28T12:30:01;14.80;;;4.63;;
34711;SDS011;20941;42.408;25.634;2023-12-28T12:32:28;16.10;;;4.90;;
34711;SDS011;20941;42.408;25.634;2023-12-28T12:34:54;12.68;;;4.93;;
34711;SDS011;20941;42.408;25.634;2023-12-28T12:37:19;26.30;;;6.68;;
34711;SDS011;20941;42.408;25.634;2023-12-28T12:39:44;17.80;;;5.25;;
34711;SDS011;20941;42.408;25.634;2023-12-28T12:42:13;14.93;;;5.05;;
34711;SDS011;20941;42.408;25.634;2023-12-28T12:44:39;8.65;;;4.57;;
34711;SDS011;20941;42.408;25.634;2023-12-28T12:47:04;13.55;;;4.70;;
34711;SDS011;20941;42.408;25.634;2023-12-28T12:49:29;9.63;;;4.40;;
34711;SDS011;20941;42.408;25.634;2023-12-28T12:51:56;13.43;;;5.10;;
34711;SDS011;20941;42.408;25.634;2023-12-28T12:54:22;12.27;;;5.18;;
34711;SDS011;20941;42.408;25.634;2023-12-28T12:56:47;12.63;;;4.68;;
34711;SDS011;20941;42.408;25.634;2023-12-28T12:59:14;18.73;;;5.10;;
34711;SDS011;20941;42.408;25.634;2023-12-28T13:01:44;12.93;;;5.60;;
34711;SDS011;20941;42.408;25.634;2023-12-28T13:04:12;22.65;;;6.60;;
34711;SDS011;20941;42.408;25.634;2023-12-28T13:06:37;21.90;;;5.28;;
34711;SDS011;20941;42.408;25.634;2023-12-28T13:09:06;14.73;;;4.78;;
34711;SDS011;20941;42.408;25.634;2023-12-28T13:11:33;9.90;;;4.15;;
34711;SDS011;20941;42.408;25.634;2023-12-28T13:13:58;17.45;;;5.28;;
34711;SDS011;20941;42.408;25.634;2023-12-28T13:16:24;15.15;;;5.03;;
34711;SDS011;20941;42.408;25.634;2023-12-28T13:18:49;17.90;;;4.57;;
34711;SDS011;20941;42.408;25.634;2023-12-28T13:21:14;8.35;;;4.47;;
34711;SDS011;20941;42.408;25.634;2023-12-28T13:23:40;11.63;;;5.20;;
34711;SDS011;20941;42.408;25.634;2023-12-28T13:26:05;9.35;;;5.03;;
34711;SDS011;20941;42.408;25.634;2023-12-28T13:28:31;17.33;;;5.95;;
34711;SDS011;20941;42.408;25.634;2023-12-28T13:30:56;26.52;;;5.85;;
34711;SDS011;20941;42.408;25.634;2023-12-28T13:33:22;12.57;;;5.10;;
34711;SDS011;20941;42.408;25.634;2023-12-28T13:35:49;29.73;;;7.03;;
34711;SDS011;20941;42.408;25.634;2023-12-28T13:38:14;16.27;;;6.00;;
34711;SDS011;20941;42.408;25.634;2023-12-28T13:40:40;13.52;;;4.93;;
34711;SDS011;20941;42.408;25.634;2023-12-28T13:43:05;11.35;;;5.13;;
34711;SDS011;20941;42.408;25.634;2023-12-28T13:45:31;19.95;;;5.10;;
34711;SDS011;20941;42.408;25.634;2023-12-28T13:47:56;15.38;;;4.90;;
34711;SDS011;20941;42.408;25.634;2023-12-28T13:50:40;13.20;;;5.38;;
34711;SDS011;20941;42.408;25.634;2023-12-28T13:53:06;21.50;;;5.53;;
34711;SDS011;20941;42.408;25.634;2023-12-28T13:55:33;10.68;;;5.40;;
34711;SDS011;20941;42.408;25.634;2023-12-28T13:57:58;13.68;;;5.30;;
34711;SDS011;20941;42.408;25.634;2023-12-28T14:00:24;14.82;;;5.68;;
34711;SDS011;20941;42.408;25.634;2023-12-28T14:02:49;12.43;;;5.40;;
34711;SDS011;20941;42.408;25.634;2023-12-28T14:05:14;15.73;;;5.95;;
34711;SDS011;20941;42.408;25.634;2023-12-28T14:07:40;12.25;;;5.15;;
34711;SDS011;20941;42.408;25.634;2023-12-28T14:10:05;9.75;;;4.85;;
34711;SDS011;20941;42.408;25.634;2023-12-28T14:12:31;17.00;;;5.28;;
34711;SDS011;20941;42.408;25.634;2023-12-28T14:14:56;14.27;;;5.15;;
34711;SDS011;20941;42.408;25.634;2023-12-28T14:17:22;20.20;;;6.38;;
34711;SDS011;20941;42.408;25.634;2023-12-28T14:19:47;20.60;;;7.43;;